Time;durP1;ratioP1;P1;durP2;ratioP2;P2;SDS_P1;SDS_P2;PMS_P1;PMS_P2;Temp;Humidity;BMP_temperature;BMP_pressure;BME280_temperature;BME280_humidity;BME280_pressure;Samples;Min_cycle;Max_cycle;Signal;HPM_P1;HPM_P2
2021/11/02 00:00:22;;;;;;;3.30;2.80;;;10.20;99.90;;;;;;5015589;28;20723;-58
2021/11/02 00:02:48;;;;;;;4.03;2.70;;;10.10;99.90;;;;;;5018725;28;20677;-58
2021/11/02 00:05:14;;;;;;;6.73;3.33;;;10.00;99.90;;;;;;5018402;28;20205;-58
2021/11/02 00:07:41;;;;;;;4.17;2.50;;;10.00;99.90;;;;;;5020619;28;20567;-57
2021/11/02 00:10:08;;;;;;;2.97;2.40;;;10.00;99.90;;;;;;5016661;28;20435;-58
2021/11/02 00:12:34;;;;;;;6.53;2.50;;;10.00;99.90;;;;;;5018232;28;20526;-56
2021/11/02 00:15:00;;;;;;;5.23;2.90;;;10.00;99.90;;;;;;5019469;28;20440;-57
2021/11/02 00:17:28;;;;;;;3.97;2.90;;;10.20;99.90;;;;;;5017755;28;20442;-57
2021/11/02 00:19:59;;;;;;;2.77;2.37;;;10.20;99.90;;;;;;5017221;28;20556;-57
2021/11/02 00:22:26;;;;;;;5.50;3.43;;;10.30;99.90;;;;;;5019986;28;20453;-58
2021/11/02 00:27:17;;;;;;;4.57;2.70;;;10.40;99.90;;;;;;5015260;28;20432;-56
2021/11/02 00:29:43;;;;;;;3.00;2.40;;;10.50;99.90;;;;;;5024586;28;20195;-57
2021/11/02 00:32:09;;;;;;;3.27;2.60;;;10.20;99.90;;;;;;5016531;28;20185;-56
2021/11/02 00:34:34;;;;;;;4.43;2.43;;;10.30;99.90;;;;;;5006487;28;20192;-57
2021/11/02 00:37:00;;;;;;;5.10;3.20;;;10.30;99.90;;;;;;5019849;28;20259;-57
2021/11/02 00:39:26;;;;;;;6.73;2.30;;;10.40;99.90;;;;;;5017788;28;20191;-59
2021/11/02 00:41:51;;;;;;;3.73;2.50;;;10.50;99.90;;;;;;5016993;28;20323;-56
2021/11/02 00:44:18;;;;;;;2.97;2.50;;;10.50;99.90;;;;;;5018889;28;20212;-57
2021/11/02 00:46:44;;;;;;;3.60;2.07;;;10.50;99.90;;;;;;5013896;28;20213;-58
2021/11/02 00:49:17;;;;;;;4.60;2.43;;;10.40;99.90;;;;;;5018897;28;20461;-58
2021/11/02 00:51:43;;;;;;;4.67;3.47;;;10.30;99.90;;;;;;5020569;28;20672;-58
2021/11/02 00:54:08;;;;;;;5.07;2.53;;;10.50;99.90;;;;;;5019971;28;20442;-58
2021/11/02 00:56:34;;;;;;;6.37;2.60;;;10.60;99.90;;;;;;5026816;28;20486;-58
2021/11/02 00:59:00;;;;;;;4.67;2.50;;;10.50;99.90;;;;;;5012719;28;20200;-55
2021/11/02 01:01:25;;;;;;;5.43;2.40;;;10.40;99.90;;;;;;5020813;28;20428;-59
2021/11/02 01:03:51;;;;;;;2.97;2.20;;;10.00;99.90;;;;;;5020573;28;20212;-56
2021/11/02 01:06:17;;;;;;;3.60;2.43;;;10.10;99.90;;;;;;5020076;28;20267;-57
2021/11/02 01:08:42;;;;;;;2.93;2.27;;;10.10;99.90;;;;;;5013997;28;20390;-56
2021/11/02 01:11:08;;;;;;;2.10;1.90;;;10.20;99.90;;;;;;5018714;28;20870;-58
2021/11/02 01:13:35;;;;;;;2.83;2.23;;;10.10;99.90;;;;;;5019109;28;20180;-57
2021/11/02 01:16:01;;;;;;;3.60;2.43;;;10.20;99.90;;;;;;5014930;28;20205;-57
2021/11/02 01:18:26;;;;;;;4.20;2.63;;;10.10;99.90;;;;;;5025298;28;20525;-56
2021/11/02 01:20:53;;;;;;;3.53;2.20;;;10.10;99.90;;;;;;5027200;28;20589;-55
2021/11/02 01:23:18;;;;;;;3.27;2.67;;;10.40;99.90;;;;;;5025387;28;20192;-54
2021/11/02 01:25:44;;;;;;;2.87;2.30;;;10.60;99.90;;;;;;5024619;28;20845;-57
2021/11/02 01:28:10;;;;;;;4.27;2.20;;;10.60;99.90;;;;;;5020867;28;20185;-56
2021/11/02 01:30:36;;;;;;;2.70;2.20;;;10.40;99.90;;;;;;5021115;28;20428;-58
2021/11/02 01:33:02;;;;;;;2.90;2.60;;;10.40;99.90;;;;;;5017947;28;20187;-57
2021/11/02 01:35:28;;;;;;;4.63;2.47;;;10.50;99.90;;;;;;5020853;28;20250;-58
2021/11/02 01:37:54;;;;;;;4.37;2.60;;;10.60;99.90;;;;;;5020743;28;20183;-59
2021/11/02 01:40:20;;;;;;;2.97;2.60;;;10.40;99.90;;;;;;5027841;28;20439;-57
2021/11/02 01:42:47;;;;;;;4.70;2.90;;;10.30;99.90;;;;;;5026334;28;20235;-57
2021/11/02 01:45:15;;;;;;;4.03;3.17;;;10.40;99.90;;;;;;5018995;28;20284;-57
2021/11/02 01:47:43;;;;;;;6.70;2.60;;;10.30;99.90;;;;;;5019010;28;20439;-58
2021/11/02 01:50:10;;;;;;;4.10;2.30;;;10.20;99.90;;;;;;5017790;28;20877;-57
2021/11/02 01:52:36;;;;;;;4.10;2.30;;;10.50;99.90;;;;;;5014560;28;20435;-57
2021/11/02 01:55:02;;;;;;;4.10;2.43;;;10.60;99.90;;;;;;5019084;28;20518;-57
2021/11/02 01:57:28;;;;;;;4.53;2.57;;;10.50;99.90;;;;;;5024295;28;20427;-55
2021/11/02 01:59:55;;;;;;;3.77;2.37;;;10.40;99.90;;;;;;5019572;28;20439;-57
2021/11/02 02:02:34;;;;;;;6.63;2.77;;;10.50;99.90;;;;;;5023971;28;20180;-52
2021/11/02 02:05:09;;;;;;;3.27;2.33;;;10.60;99.90;;;;;;5010850;28;21158;-59
2021/11/02 02:08:08;;;;;;;7.17;2.60;;;10.60;99.90;;;;;;5012749;28;20431;-58
2021/11/02 02:11:02;;;;;;;3.83;2.30;;;10.60;99.90;;;;;;5024773;28;20931;-56
2021/11/02 02:13:48;;;;;;;2.53;1.90;;;10.50;99.90;;;;;;5014399;28;20846;-57
2021/11/02 02:16:19;;;;;;;5.87;2.30;;;10.50;99.90;;;;;;5020299;28;20458;-57
2021/11/02 02:19:03;;;;;;;3.53;2.23;;;10.70;99.90;;;;;;5019860;28;20463;-56
2021/11/02 02:21:39;;;;;;;4.27;2.53;;;10.50;99.90;;;;;;5021281;28;20459;-56
2021/11/02 02:24:26;;;;;;;3.87;2.33;;;10.50;99.90;;;;;;5019968;28;20462;-54
2021/11/02 02:27:04;;;;;;;4.57;2.57;;;10.70;99.90;;;;;;5021311;28;20450;-57
2021/11/02 02:29:33;;;;;;;4.67;2.43;;;10.80;99.90;;;;;;5019364;28;20458;-54
2021/11/02 02:32:01;;;;;;;8.97;3.00;;;10.80;99.90;;;;;;5013537;28;20439;-56
2021/11/02 02:34:27;;;;;;;7.47;2.67;;;10.80;99.90;;;;;;5019927;28;20431;-58
2021/11/02 02:36:53;;;;;;;2.80;2.30;;;10.60;99.90;;;;;;5020416;28;20439;-55
2021/11/02 02:39:20;;;;;;;4.63;2.27;;;10.60;99.90;;;;;;5015618;28;20667;-57
2021/11/02 02:41:47;;;;;;;5.67;2.47;;;10.60;99.90;;;;;;5020417;28;20419;-57
2021/11/02 02:44:13;;;;;;;6.40;2.40;;;10.60;99.90;;;;;;5020246;28;20559;-57
2021/11/02 02:46:39;;;;;;;2.83;2.10;;;10.70;99.90;;;;;;5017964;28;20458;-57
2021/11/02 02:49:08;;;;;;;4.27;2.30;;;10.70;99.90;;;;;;5022270;28;20446;-57
2021/11/02 02:51:34;;;;;;;4.30;2.40;;;10.80;99.90;;;;;;5019701;28;20439;-59
2021/11/02 02:54:01;;;;;;;4.80;2.70;;;10.70;99.90;;;;;;5019209;28;20424;-58
2021/11/02 02:56:29;;;;;;;7.70;2.40;;;10.70;99.90;;;;;;5014526;28;20463;-58
2021/11/02 02:59:00;;;;;;;2.10;1.83;;;10.70;99.90;;;;;;5018559;28;20969;-59
2021/11/02 03:01:27;;;;;;;3.63;2.50;;;10.40;99.90;;;;;;5018865;28;20534;-56
2021/11/02 03:03:59;;;;;;;4.50;2.20;;;10.30;99.90;;;;;;5018281;28;20889;-57
2021/11/02 03:06:27;;;;;;;5.47;1.93;;;10.50;99.90;;;;;;5018401;28;20462;-56
2021/11/02 03:08:54;;;;;;;5.60;2.63;;;10.50;99.90;;;;;;5004622;28;20474;-58
2021/11/02 03:11:20;;;;;;;4.60;2.40;;;10.40;99.90;;;;;;5016574;28;20435;-57
2021/11/02 03:13:49;;;;;;;3.77;2.17;;;10.40;99.90;;;;;;5016453;28;20442;-55
2021/11/02 03:16:21;;;;;;;3.77;2.37;;;10.40;99.90;;;;;;5015714;28;20543;-56
2021/11/02 03:49:18;;;;;;;7.40;2.60;;;10.20;99.90;;;;;;5016717;28;20515;-58
2021/11/02 03:57:19;;;;;;;5.70;3.40;;;10.20;99.90;;;;;;5016210;28;20512;-56
2021/11/02 04:42:30;;;;;;;2.70;2.30;;;10.10;99.90;;;;;;5014664;28;20478;-54
2021/11/02 05:46:44;;;;;;;6.63;3.13;;;9.50;99.90;;;;;;5017582;28;20539;-57
2021/11/02 06:01:11;;;;;;;3.60;2.50;;;10.10;99.90;;;;;;5018076;28;20444;-58
2021/11/02 06:28:22;;;;;;;6.07;3.03;;;9.90;99.90;;;;;;5018613;28;20441;-58
2021/11/02 06:31:00;;;;;;;2.87;2.53;;;10.10;99.90;;;;;;5020033;28;20481;-60
2021/11/02 06:36:11;;;;;;;3.30;2.57;;;9.90;99.90;;;;;;5017154;28;20467;-61
2021/11/02 06:44:36;;;;;;;9.70;2.40;;;9.90;99.90;;;;;;5015377;28;20434;-59
2021/11/02 07:21:13;;;;;;;6.33;3.00;;;11.70;99.90;;;;;;4998012;28;20559;-53
2021/11/02 07:29:19;;;;;;;5.23;3.00;;;11.70;99.90;;;;;;5010788;28;20498;-54
2021/11/02 08:45:42;;;;;;;8.17;4.50;;;11.80;99.90;;;;;;5018408;28;20490;-52
2021/11/02 08:48:07;;;;;;;7.93;3.60;;;11.30;99.90;;;;;;5015301;28;20435;-56
2021/11/02 08:50:53;;;;;;;4.67;2.90;;;11.40;99.90;;;;;;5012874;28;20447;-54
2021/11/02 08:53:20;;;;;;;4.20;2.90;;;11.30;99.90;;;;;;5017907;28;20216;-52
2021/11/02 08:55:47;;;;;;;5.13;3.93;;;11.60;99.90;;;;;;5016535;28;20458;-57
2021/11/02 08:58:12;;;;;;;4.93;3.00;;;11.60;99.90;;;;;;5015029;28;20815;-53
2021/11/02 09:00:42;;;;;;;4.60;3.40;;;11.30;99.90;;;;;;5015600;28;20590;-51
2021/11/02 09:03:22;;;;;;;5.27;3.77;;;11.40;99.90;;;;;;5016724;28;20189;-54
2021/11/02 09:05:51;;;;;;;5.17;2.60;;;11.60;99.90;;;;;;5017286;28;21237;-52
2021/11/02 09:08:19;;;;;;;4.23;2.73;;;11.60;99.90;;;;;;5013019;28;20436;-54
2021/11/02 09:10:46;;;;;;;4.80;2.43;;;11.50;99.90;;;;;;5015113;28;20459;-52
2021/11/02 09:13:13;;;;;;;3.40;2.67;;;11.40;99.90;;;;;;5014873;28;20455;-54
2021/11/02 09:15:38;;;;;;;7.27;2.70;;;11.40;99.90;;;;;;5015658;28;20446;-52
2021/11/02 09:18:07;;;;;;;8.10;2.80;;;11.40;99.90;;;;;;5014577;28;20523;-53
2021/11/02 09:20:33;;;;;;;12.23;3.63;;;11.20;99.90;;;;;;5017718;28;20241;-53
2021/11/02 09:22:59;;;;;;;7.90;2.90;;;11.20;99.90;;;;;;5014092;28;20466;-54
2021/11/02 09:25:25;;;;;;;4.20;2.80;;;11.30;99.90;;;;;;5016390;28;21010;-52
2021/11/02 09:27:51;;;;;;;5.93;2.77;;;11.30;99.90;;;;;;5014136;28;20921;-53
2021/11/02 09:30:19;;;;;;;2.70;2.30;;;11.20;99.90;;;;;;5018034;28;20453;-54
2021/11/02 09:32:47;;;;;;;4.83;2.40;;;11.10;99.90;;;;;;5017149;28;20188;-53
2021/11/02 09:35:15;;;;;;;4.33;2.57;;;11.10;99.90;;;;;;5012757;28;21026;-56
2021/11/02 09:37:59;;;;;;;6.10;2.67;;;11.00;99.90;;;;;;5014212;28;20447;-55
2021/11/02 09:40:30;;;;;;;6.20;3.10;;;11.00;99.90;;;;;;5014758;28;20522;-56
2021/11/02 09:43:28;;;;;;;4.70;2.63;;;10.90;99.90;;;;;;5014047;28;20825;-56
2021/11/02 09:46:29;;;;;;;4.70;2.97;;;10.80;99.90;;;;;;5001381;28;20491;-55
2021/11/02 09:49:25;;;;;;;5.70;2.93;;;10.70;99.90;;;;;;5014819;28;20435;-54
2021/11/02 09:52:05;;;;;;;4.10;2.77;;;10.70;99.90;;;;;;5016346;28;20474;-55
2021/11/02 09:55:04;;;;;;;3.90;2.60;;;10.70;99.90;;;;;;5020221;28;20446;-56
2021/11/02 09:58:00;;;;;;;5.73;3.10;;;10.60;99.90;;;;;;5008424;28;20441;-52
2021/11/02 10:00:31;;;;;;;4.23;2.90;;;10.70;99.90;;;;;;5021203;28;20451;-55
2021/11/02 10:03:12;;;;;;;5.93;2.70;;;10.60;99.90;;;;;;5013938;28;20439;-55
2021/11/02 10:05:45;;;;;;;6.00;3.10;;;10.70;99.90;;;;;;5011032;28;20468;-55
2021/11/02 10:08:34;;;;;;;6.97;3.47;;;10.70;99.90;;;;;;5016354;28;21143;-56
2021/11/02 10:11:12;;;;;;;6.27;3.70;;;10.70;99.90;;;;;;5017195;28;20458;-54
2021/11/02 10:13:49;;;;;;;3.03;2.73;;;10.80;99.90;;;;;;5015927;28;20791;-54
2021/11/02 10:16:25;;;;;;;7.33;3.20;;;10.80;99.90;;;;;;5016451;28;20427;-57
2021/11/02 10:19:09;;;;;;;5.30;2.20;;;10.90;99.90;;;;;;5015002;28;20447;-54
2021/11/02 10:21:52;;;;;;;4.17;2.23;;;10.80;99.90;;;;;;5015629;28;20450;-54
2021/11/02 10:24:23;;;;;;;3.40;1.80;;;10.70;99.90;;;;;;5017441;28;20451;-55
2021/11/02 10:26:54;;;;;;;5.10;2.10;;;10.70;99.90;;;;;;5013491;28;20497;-54
2021/11/02 10:30:00;;;;;;;2.40;1.93;;;10.70;99.90;;;;;;5015204;28;21069;-56
2021/11/02 10:32:28;;;;;;;4.23;2.07;;;10.70;99.90;;;;;;5011666;28;20545;-55
2021/11/02 10:35:26;;;;;;;3.47;2.03;;;10.50;99.90;;;;;;5012613;28;20487;-56
2021/11/02 10:38:13;;;;;;;2.33;2.13;;;10.50;99.90;;;;;;5016030;28;20508;-56
2021/11/02 10:41:02;;;;;;;2.00;1.70;;;10.60;99.90;;;;;;5016312;28;20471;-55
2021/11/02 10:43:48;;;;;;;2.27;1.67;;;10.60;99.90;;;;;;5014699;28;20939;-54
2021/11/02 10:46:14;;;;;;;2.50;1.70;;;10.60;99.90;;;;;;5015651;28;21188;-53
2021/11/02 10:48:46;;;;;;;3.37;1.70;;;10.60;99.90;;;;;;5003064;28;20444;-53
2021/11/02 10:51:42;;;;;;;2.20;1.70;;;10.70;99.90;;;;;;5008909;28;20558;-56
2021/11/02 10:54:20;;;;;;;1.93;1.70;;;10.70;99.90;;;;;;5009111;28;20440;-57
2021/11/02 10:57:05;;;;;;;2.80;1.57;;;10.70;99.90;;;;;;5012953;28;20501;-56
2021/11/02 10:59:32;;;;;;;4.13;1.80;;;10.70;99.90;;;;;;5008749;28;20436;-56
2021/11/02 11:01:59;;;;;;;2.47;1.60;;;10.70;99.90;;;;;;5013993;28;20563;-55
2021/11/02 11:04:32;;;;;;;6.40;2.13;;;10.70;99.90;;;;;;5014607;28;20529;-57
2021/11/02 11:06:58;;;;;;;2.60;1.60;;;10.70;99.90;;;;;;5014727;28;20432;-55
2021/11/02 11:09:28;;;;;;;4.50;1.80;;;10.80;99.90;;;;;;5011830;28;20484;-56
2021/11/02 11:11:55;;;;;;;3.13;1.70;;;10.80;99.90;;;;;;4984506;28;21067;-56
2021/11/02 11:14:31;;;;;;;1.83;1.40;;;10.80;99.90;;;;;;5012655;28;20809;-54
2021/11/02 11:16:57;;;;;;;1.53;1.43;;;10.80;99.90;;;;;;5012331;28;20441;-56
2021/11/02 11:19:38;;;;;;;4.90;1.60;;;10.80;99.90;;;;;;5014238;28;20458;-51
2021/11/02 11:22:04;;;;;;;2.40;1.87;;;10.60;99.90;;;;;;5010459;28;20458;-54
2021/11/02 11:24:39;;;;;;;5.93;2.10;;;10.70;99.90;;;;;;5012861;28;20932;-56
2021/11/02 11:27:07;;;;;;;2.60;1.70;;;10.70;99.90;;;;;;5010717;28;20451;-57
2021/11/02 11:29:40;;;;;;;4.57;1.97;;;10.80;99.90;;;;;;5014483;28;20826;-54
2021/11/02 11:32:07;;;;;;;4.30;1.90;;;10.80;99.90;;;;;;5012427;28;20467;-52
2021/11/02 11:34:41;;;;;;;2.10;1.60;;;11.00;99.90;;;;;;5010610;28;20459;-54
2021/11/02 11:37:09;;;;;;;3.67;1.73;;;11.00;99.90;;;;;;5011623;28;20793;-54
2021/11/02 11:39:36;;;;;;;3.00;1.93;;;11.00;99.90;;;;;;5010913;28;20454;-54
2021/11/02 11:42:02;;;;;;;1.90;1.70;;;11.10;99.90;;;;;;5011041;28;20460;-54
2021/11/02 11:44:29;;;;;;;4.33;2.13;;;11.00;99.90;;;;;;5010969;28;21161;-56
2021/11/02 11:47:11;;;;;;;2.80;1.80;;;11.00;99.90;;;;;;5012980;28;20689;-55
2021/11/02 11:49:40;;;;;;;5.23;1.83;;;11.00;99.90;;;;;;5010625;28;20451;-53
2021/11/02 11:52:08;;;;;;;2.73;1.77;;;10.90;99.90;;;;;;5013685;28;20474;-55
2021/11/02 11:54:54;;;;;;;3.10;2.80;;;11.00;99.90;;;;;;5009548;28;20436;-56
2021/11/02 11:57:29;;;;;;;1.63;1.50;;;11.20;99.90;;;;;;5013271;28;20846;-57
2021/11/02 12:00:13;;;;;;;2.57;1.90;;;11.50;99.90;;;;;;5010429;28;20448;-56
2021/11/02 12:02:52;;;;;;;1.70;1.60;;;11.70;99.90;;;;;;5009040;28;20485;-56
2021/11/02 12:05:21;;;;;;;2.03;1.83;;;11.80;99.90;;;;;;5007093;28;20483;-55
2021/11/02 12:08:22;;;;;;;1.93;1.60;;;11.80;99.90;;;;;;5014226;28;20583;-54
2021/11/02 12:10:52;;;;;;;2.10;1.60;;;11.80;99.90;;;;;;5007769;28;20455;-55
2021/11/02 12:13:18;;;;;;;2.13;1.60;;;12.00;99.90;;;;;;5010917;28;20435;-55
2021/11/02 12:15:58;;;;;;;2.87;1.67;;;12.00;99.90;;;;;;5010130;28;20454;-55
2021/11/02 12:18:28;;;;;;;2.03;1.80;;;11.90;99.90;;;;;;5010691;28;20462;-53
2021/11/02 12:20:54;;;;;;;3.10;2.10;;;11.90;99.90;;;;;;5016303;28;20966;-54
2021/11/02 12:23:39;;;;;;;2.73;1.73;;;12.00;99.90;;;;;;5012376;28;20452;-52
2021/11/02 12:26:06;;;;;;;2.07;1.70;;;12.50;99.90;;;;;;5009810;28;20463;-55
2021/11/02 12:28:41;;;;;;;2.97;1.70;;;13.30;99.90;;;;;;5016094;28;20438;-52
2021/11/02 12:31:15;;;;;;;2.10;1.60;;;13.80;99.90;;;;;;5008344;28;21734;-55
2021/11/02 12:33:54;;;;;;;1.77;1.60;;;15.10;99.90;;;;;;5011238;28;20535;-54
2021/11/02 12:36:24;;;;;;;1.87;1.67;;;15.40;99.90;;;;;;5010928;28;20562;-54
2021/11/02 12:38:59;;;;;;;2.00;1.60;;;15.60;99.90;;;;;;5013024;28;20451;-56
2021/11/02 12:41:25;;;;;;;3.47;2.33;;;15.30;99.90;;;;;;5009782;28;20545;-53
2021/11/02 12:44:08;;;;;;;1.77;1.50;;;14.80;99.90;;;;;;5009485;28;20436;-56
2021/11/02 12:46:36;;;;;;;2.87;1.93;;;14.20;99.90;;;;;;5013862;28;20796;-56
2021/11/02 12:49:02;;;;;;;2.60;1.80;;;13.70;99.90;;;;;;5014029;28;20461;-54
2021/11/02 12:51:31;;;;;;;2.00;1.60;;;13.20;99.90;;;;;;5014431;28;20542;-55
2021/11/02 12:53:59;;;;;;;2.13;1.90;;;13.10;99.90;;;;;;5013530;28;20436;-56
2021/11/02 12:56:27;;;;;;;1.80;1.50;;;13.10;99.90;;;;;;5011545;28;20447;-52
2021/11/02 12:59:06;;;;;;;3.03;1.70;;;13.30;99.90;;;;;;5008633;28;20431;-54
2021/11/02 13:01:37;;;;;;;2.17;1.50;;;12.90;99.90;;;;;;5012440;28;20835;-56
2021/11/02 13:04:10;;;;;;;1.70;1.43;;;12.90;99.90;;;;;;5009694;28;20450;-56
2021/11/02 13:06:44;;;;;;;1.57;1.33;;;12.80;99.90;;;;;;5015659;28;20481;-54
2021/11/02 13:09:15;;;;;;;1.53;1.10;;;12.60;99.90;;;;;;5015896;28;20461;-53
2021/11/02 13:11:42;;;;;;;1.60;1.30;;;12.50;99.90;;;;;;5011224;28;20823;-52
2021/11/02 13:14:12;;;;;;;2.87;1.40;;;13.20;99.90;;;;;;5018638;28;20436;-56
2021/11/02 13:16:58;;;;;;;1.97;1.57;;;13.40;99.90;;;;;;5021645;28;20475;-54
2021/11/02 13:19:34;;;;;;;1.30;1.20;;;13.60;99.90;;;;;;5018516;28;20469;-56
2021/11/02 13:22:21;;;;;;;4.07;1.60;;;13.60;99.90;;;;;;5016840;28;20469;-54
2021/11/02 13:25:04;;;;;;;1.90;1.70;;;13.40;99.90;;;;;;5021295;28;20464;-56
2021/11/02 13:27:31;;;;;;;2.13;1.50;;;13.50;99.90;;;;;;5014897;28;21131;-53
2021/11/02 13:30:31;;;;;;;1.93;1.43;;;13.70;99.90;;;;;;5013785;28;20838;-56
2021/11/02 13:33:09;;;;;;;1.90;1.47;;;14.50;99.90;;;;;;5013694;28;20435;-56
2021/11/02 13:35:57;;;;;;;2.10;1.40;;;14.50;99.90;;;;;;5016201;28;20425;-55
2021/11/02 13:38:31;;;;;;;1.90;1.40;;;14.40;99.90;;;;;;5015776;28;20939;-56
2021/11/02 13:41:17;;;;;;;4.40;1.83;;;14.00;99.90;;;;;;5013365;28;20525;-56
2021/11/02 13:44:02;;;;;;;1.70;1.33;;;13.90;99.90;;;;;;5015674;28;20467;-56
2021/11/02 13:46:30;;;;;;;1.70;1.30;;;13.90;99.90;;;;;;5012910;28;20496;-57
2021/11/02 13:48:56;;;;;;;1.50;1.30;;;13.90;99.90;;;;;;5018072;28;20807;-56
2021/11/02 13:51:23;;;;;;;1.53;1.20;;;13.90;99.90;;;;;;5012486;28;20474;-52
2021/11/02 13:53:49;;;;;;;2.90;1.30;;;13.70;99.90;;;;;;5012903;28;20792;-56
2021/11/02 13:56:18;;;;;;;1.30;1.20;;;13.50;99.90;;;;;;5015070;28;20427;-58
2021/11/02 13:58:45;;;;;;;1.87;1.43;;;13.30;99.90;;;;;;5010579;28;20189;-55
2021/11/02 14:01:39;;;;;;;2.53;1.50;;;13.10;99.90;;;;;;5015495;28;20440;-54
2021/11/02 14:04:08;;;;;;;1.47;1.37;;;13.00;99.90;;;;;;5016260;28;20430;-53
2021/11/02 14:06:38;;;;;;;1.20;1.10;;;12.90;99.90;;;;;;5018809;28;20434;-54
2021/11/02 14:09:10;;;;;;;2.23;1.20;;;12.80;99.90;;;;;;5016522;28;20444;-56
2021/11/02 14:11:37;;;;;;;3.03;1.27;;;12.70;99.90;;;;;;5014447;28;20454;-56
2021/11/02 14:14:24;;;;;;;1.60;1.40;;;12.70;99.90;;;;;;5014315;28;20519;-51
2021/11/02 14:16:50;;;;;;;1.90;1.20;;;12.60;99.90;;;;;;4997323;28;20470;-52
2021/11/02 14:19:33;;;;;;;1.50;1.30;;;12.40;99.90;;;;;;5017372;28;20443;-57
2021/11/02 14:22:02;;;;;;;1.47;1.30;;;12.40;99.90;;;;;;5015814;28;20200;-55
2021/11/02 14:24:32;;;;;;;2.20;1.60;;;12.40;99.90;;;;;;5012801;28;20851;-57
2021/11/02 14:26:59;;;;;;;2.13;1.20;;;12.50;99.90;;;;;;5019549;28;20481;-54
2021/11/02 14:29:43;;;;;;;2.03;1.60;;;12.30;99.90;;;;;;5015221;28;20497;-57
2021/11/02 14:32:09;;;;;;;1.40;1.30;;;12.40;99.90;;;;;;5019336;28;20451;-50
2021/11/02 14:34:37;;;;;;;2.07;1.60;;;12.30;99.90;;;;;;5023500;28;20850;-56
2021/11/02 14:37:21;;;;;;;2.00;1.30;;;12.20;99.90;;;;;;5014546;28;20737;-56
2021/11/02 14:39:58;;;;;;;2.30;1.70;;;12.10;99.90;;;;;;5015838;28;20442;-56
2021/11/02 14:42:43;;;;;;;2.37;1.50;;;12.10;99.90;;;;;;5017825;28;20454;-54
2021/11/02 14:45:11;;;;;;;1.47;1.30;;;12.10;99.90;;;;;;5016279;28;20831;-55
2021/11/02 14:47:38;;;;;;;4.20;2.03;;;11.90;99.90;;;;;;5016954;28;20518;-53
2021/11/02 14:50:34;;;;;;;2.43;1.80;;;11.90;99.90;;;;;;5009422;28;21146;-56
2021/11/02 14:53:25;;;;;;;1.50;1.30;;;11.80;99.90;;;;;;5016201;28;20440;-56
2021/11/02 14:56:12;;;;;;;1.67;1.40;;;11.50;99.90;;;;;;5014505;28;20431;-52
2021/11/02 14:58:43;;;;;;;1.97;1.50;;;11.40;99.90;;;;;;5014625;28;20814;-53
2021/11/02 15:01:47;;;;;;;2.50;1.43;;;11.20;99.90;;;;;;5017115;28;20510;-55
2021/11/02 15:04:18;;;;;;;2.40;1.60;;;11.00;99.90;;;;;;5011447;28;20466;-54
2021/11/02 15:06:52;;;;;;;2.83;1.70;;;11.00;99.90;;;;;;5011723;28;20428;-53
2021/11/02 15:09:21;;;;;;;2.73;1.30;;;10.90;99.90;;;;;;5013915;28;20430;-54
2021/11/02 15:11:49;;;;;;;1.60;1.30;;;10.70;99.90;;;;;;5014902;28;21069;-55
2021/11/02 15:14:17;;;;;;;1.50;1.40;;;10.50;99.90;;;;;;5014155;28;20447;-53
2021/11/02 15:16:53;;;;;;;4.17;1.50;;;10.30;99.90;;;;;;5014493;28;20419;-54
2021/11/02 15:19:21;;;;;;;3.70;1.90;;;10.20;99.90;;;;;;5015972;28;20430;-52
2021/11/02 15:21:54;;;;;;;2.00;1.43;;;10.30;99.90;;;;;;5013346;28;20505;-51
2021/11/02 15:24:24;;;;;;;1.70;1.50;;;10.20;99.90;;;;;;5016590;28;20436;-53
2021/11/02 15:27:06;;;;;;;2.57;1.30;;;10.30;99.90;;;;;;5014181;28;20428;-54
2021/11/02 15:29:36;;;;;;;1.33;1.23;;;10.20;99.90;;;;;;5015660;28;20448;-50
2021/11/02 15:32:17;;;;;;;1.50;1.30;;;10.30;99.90;;;;;;5011261;28;20601;-54
2021/11/02 15:34:59;;;;;;;3.00;1.30;;;10.30;99.90;;;;;;5006285;28;20747;-55
2021/11/02 15:37:33;;;;;;;2.90;1.17;;;10.30;99.90;;;;;;5017671;28;20489;-55
2021/11/02 15:40:03;;;;;;;1.57;1.30;;;10.30;99.90;;;;;;5010904;28;20510;-55
2021/11/02 15:42:41;;;;;;;1.80;1.30;;;10.30;99.90;;;;;;5011864;28;20755;-55
2021/11/02 15:45:30;;;;;;;1.70;1.40;;;10.20;99.90;;;;;;5014254;28;20999;-55
2021/11/02 15:48:04;;;;;;;1.97;1.20;;;10.10;99.90;;;;;;5011853;28;20435;-53
2021/11/02 15:50:30;;;;;;;3.53;1.50;;;10.30;99.90;;;;;;5015271;28;20465;-50
2021/11/02 15:52:57;;;;;;;1.73;1.40;;;10.30;99.90;;;;;;5012363;28;20431;-52
2021/11/02 15:55:24;;;;;;;1.60;1.33;;;10.30;99.90;;;;;;5019318;28;20199;-51
2021/11/02 15:57:55;;;;;;;2.73;1.40;;;10.30;99.90;;;;;;5013614;28;20827;-50
2021/11/02 16:00:32;;;;;;;1.30;1.20;;;10.30;99.90;;;;;;5010389;28;20954;-53
2021/11/02 16:02:58;;;;;;;2.07;1.43;;;10.40;99.90;;;;;;5012037;28;20490;-55
2021/11/02 16:05:26;;;;;;;1.67;1.40;;;10.50;99.90;;;;;;5006318;28;20994;-55
2021/11/02 16:08:12;;;;;;;2.83;1.40;;;10.50;99.90;;;;;;5013753;28;20477;-55
2021/11/02 16:10:37;;;;;;;1.93;1.43;;;10.50;99.90;;;;;;5011151;28;20819;-57
2021/11/02 16:13:08;;;;;;;1.90;1.40;;;10.60;99.90;;;;;;5009857;28;20435;-56
2021/11/02 16:15:38;;;;;;;3.00;1.50;;;10.60;99.90;;;;;;5013234;28;20216;-55
2021/11/02 16:18:06;;;;;;;1.83;1.40;;;10.50;99.90;;;;;;5013068;28;20470;-58
2021/11/02 16:20:38;;;;;;;2.83;2.03;;;10.50;99.90;;;;;;5015053;28;20469;-58
2021/11/02 16:23:15;;;;;;;2.70;1.70;;;10.60;99.90;;;;;;5013620;28;20504;-54
2021/11/02 16:25:49;;;;;;;2.00;1.60;;;10.60;99.90;;;;;;5015973;28;20466;-56
2021/11/02 16:28:24;;;;;;;1.97;1.67;;;10.60;99.90;;;;;;5013978;28;20474;-58
2021/11/02 16:30:56;;;;;;;3.63;2.13;;;10.60;99.90;;;;;;5011202;28;20456;-58
2021/11/02 16:33:39;;;;;;;2.30;1.40;;;10.60;99.90;;;;;;5016202;28;20440;-58
2021/11/02 16:36:24;;;;;;;1.60;1.47;;;10.70;99.90;;;;;;5014238;28;20455;-59
2021/11/02 16:38:52;;;;;;;2.50;1.90;;;10.80;99.90;;;;;;5015692;28;20496;-58
2021/11/02 16:41:23;;;;;;;1.80;1.50;;;10.80;99.90;;;;;;5006208;28;20456;-49
2021/11/02 16:44:10;;;;;;;1.70;1.50;;;10.90;99.90;;;;;;5013297;28;20420;-54
2021/11/02 16:46:51;;;;;;;3.00;2.70;;;10.80;99.90;;;;;;5013270;28;20494;-49
2021/11/02 16:49:25;;;;;;;2.63;2.43;;;10.80;99.90;;;;;;5015065;28;20475;-51
2021/11/02 16:52:06;;;;;;;2.97;2.00;;;10.70;99.90;;;;;;5016132;28;21100;-54
2021/11/02 16:54:43;;;;;;;2.20;1.77;;;10.50;99.90;;;;;;5012837;28;20507;-55
2021/11/02 16:57:22;;;;;;;2.20;1.70;;;10.40;99.90;;;;;;5013220;28;20951;-54
2021/11/02 17:00:09;;;;;;;1.97;1.77;;;10.40;99.90;;;;;;5016547;28;20479;-53
2021/11/02 17:03:03;;;;;;;2.13;1.87;;;10.40;99.90;;;;;;5018835;28;20542;-55
2021/11/02 17:05:36;;;;;;;2.37;1.80;;;10.40;99.90;;;;;;5016015;28;21330;-53
2021/11/02 17:08:02;;;;;;;4.43;2.30;;;10.40;99.90;;;;;;5015974;28;20491;-53
2021/11/02 17:10:39;;;;;;;3.20;2.30;;;10.30;99.90;;;;;;5016816;28;20447;-53
2021/11/02 17:13:06;;;;;;;3.20;2.10;;;10.30;99.90;;;;;;5017759;28;20621;-54
2021/11/02 17:15:34;;;;;;;4.13;2.40;;;10.30;99.90;;;;;;4995836;28;20971;-54
2021/11/02 17:18:02;;;;;;;2.80;1.83;;;10.40;99.90;;;;;;5018621;28;20440;-53
2021/11/02 17:20:28;;;;;;;4.83;2.60;;;10.60;99.90;;;;;;5013908;28;20521;-55
2021/11/02 17:22:54;;;;;;;5.40;3.30;;;10.60;99.90;;;;;;5010010;28;20439;-51
2021/11/02 17:25:21;;;;;;;5.17;2.90;;;10.50;99.90;;;;;;5010349;28;20471;-56
2021/11/02 17:27:49;;;;;;;4.20;2.83;;;10.70;99.90;;;;;;5009805;28;20451;-53
2021/11/02 17:30:23;;;;;;;4.70;2.70;;;10.80;99.90;;;;;;5012855;28;20530;-53
2021/11/02 17:32:51;;;;;;;3.90;2.77;;;10.80;99.90;;;;;;5011393;28;20484;-56
2021/11/02 17:35:17;;;;;;;3.10;2.80;;;11.00;99.90;;;;;;5009370;28;20454;-53
2021/11/02 17:37:50;;;;;;;7.37;3.47;;;11.20;99.90;;;;;;5010859;28;20447;-55
2021/11/02 17:40:19;;;;;;;3.57;2.80;;;11.00;99.90;;;;;;5014573;28;20447;-56
2021/11/02 17:42:46;;;;;;;3.60;2.83;;;11.00;99.90;;;;;;5011208;28;20439;-51
2021/11/02 17:45:13;;;;;;;4.00;2.43;;;10.90;99.90;;;;;;5013432;28;20474;-53
2021/11/02 17:47:47;;;;;;;2.97;2.43;;;11.10;99.90;;;;;;4998755;28;20945;-50
2021/11/02 17:50:15;;;;;;;3.50;2.47;;;11.10;99.90;;;;;;5007874;28;20803;-54
2021/11/02 17:52:41;;;;;;;3.37;2.90;;;11.00;99.90;;;;;;5012156;28;20436;-54
2021/11/02 17:55:09;;;;;;;3.17;2.37;;;11.20;99.90;;;;;;5017523;28;20439;-52
2021/11/02 17:57:46;;;;;;;2.73;2.47;;;11.20;99.90;;;;;;5010181;28;20436;-52
2021/11/02 18:00:15;;;;;;;3.50;2.23;;;11.30;99.90;;;;;;5015810;28;20435;-56
2021/11/02 18:02:41;;;;;;;3.13;2.50;;;11.50;99.90;;;;;;4998447;28;21226;-54
2021/11/02 18:05:09;;;;;;;3.00;2.67;;;11.20;99.90;;;;;;5015038;28;20474;-53
2021/11/02 18:07:35;;;;;;;3.83;2.40;;;11.20;99.90;;;;;;4997011;28;20436;-53
2021/11/02 18:10:01;;;;;;;4.17;2.20;;;11.30;99.90;;;;;;5014920;28;21002;-54
2021/11/02 18:12:30;;;;;;;3.33;2.50;;;11.20;99.90;;;;;;5006634;28;20481;-53
2021/11/02 18:14:56;;;;;;;3.93;2.43;;;11.20;99.90;;;;;;5013885;28;20526;-55
2021/11/02 18:17:24;;;;;;;4.40;2.70;;;11.20;99.90;;;;;;5014594;28;20443;-54